createdAt,value
2023-02-27T00:01:15.659Z,97527.88
2023-02-27T00:03:42.445Z,97529.91
2023-02-27T00:06:09.049Z,97529.88
2023-02-27T00:08:35.693Z,97537.97
2023-02-27T00:11:02.378Z,97530.28
2023-02-27T00:13:29.041Z,97538.72
2023-02-27T00:15:55.941Z,97540.00
2023-02-27T00:18:22.595Z,97540.66
2023-02-27T00:20:49.184Z,97542.69
2023-02-27T00:23:15.869Z,97547.63
2023-02-27T00:25:42.543Z,97556.41
2023-02-27T00:28:09.221Z,97557.75
2023-02-27T00:30:35.884Z,97557.34
2023-02-27T00:33:02.545Z,97561.72
2023-02-27T00:35:29.165Z,97557.06
2023-02-27T00:37:55.830Z,97557.06
2023-02-27T00:40:22.542Z,97557.97
2023-02-27T00:42:49.234Z,97556.00
2023-02-27T00:45:15.928Z,97555.53
2023-02-27T00:47:42.566Z,97558.50
2023-02-27T00:50:09.224Z,97557.97
2023-02-27T00:52:35.861Z,97558.88
2023-02-27T00:55:02.550Z,97560.91
2023-02-27T00:57:29.182Z,97556.81
2023-02-27T00:59:55.788Z,97551.59
2023-02-27T01:02:22.484Z,97558.06
2023-02-27T01:04:49.199Z,97556.69
2023-02-27T01:07:15.882Z,97554.38
2023-02-27T01:09:42.553Z,97554.50
2023-02-27T01:12:09.224Z,97562.34
2023-02-27T01:14:35.913Z,97561.25
2023-02-27T01:17:02.561Z,97558.69
2023-02-27T01:19:29.283Z,97562.69
2023-02-27T01:21:56.921Z,97553.78
2023-02-27T01:24:23.605Z,97560.06
2023-02-27T01:26:50.238Z,97564.56
2023-02-27T01:29:16.920Z,97571.25
2023-02-27T01:31:43.645Z,97562.66
2023-02-27T01:34:10.407Z,97562.22
2023-02-27T01:36:37.080Z,97561.53
2023-02-27T01:39:03.834Z,97556.66
2023-02-27T01:41:30.502Z,97566.94
2023-02-27T01:43:57.144Z,97564.59
2023-02-27T01:46:23.874Z,97557.75
2023-02-27T01:48:50.528Z,97557.75
2023-02-27T01:51:17.220Z,97557.09
2023-02-27T01:53:43.810Z,97563.00
2023-02-27T01:56:10.467Z,97563.13
2023-02-27T01:58:37.076Z,97565.06
2023-02-27T02:01:04.000Z,97567.09
2023-02-27T02:03:30.690Z,97575.03
2023-02-27T02:05:57.334Z,97575.88
2023-02-27T02:08:23.957Z,97567.41
2023-02-27T02:10:50.622Z,97575.31
2023-02-27T02:13:17.293Z,97577.78
2023-02-27T02:15:43.922Z,97577.25
2023-02-27T02:18:10.621Z,97580.13
2023-02-27T02:20:37.254Z,97576.69
2023-02-27T02:23:03.891Z,97580.66
2023-02-27T02:25:30.576Z,97580.91
2023-02-27T02:27:57.184Z,97584.34
2023-02-27T02:30:23.861Z,97585.44
2023-02-27T02:32:50.532Z,97589.81
2023-02-27T02:35:17.163Z,97595.28
2023-02-27T02:37:43.798Z,97596.41
2023-02-27T02:40:10.484Z,97601.44
2023-02-27T02:42:37.241Z,97597.59
2023-02-27T02:45:03.908Z,97602.91
2023-02-27T02:47:30.508Z,97611.22
2023-02-27T02:49:57.176Z,97597.16
2023-02-27T02:52:23.851Z,97607.56
2023-02-27T02:54:50.453Z,97604.97
2023-02-27T02:57:17.151Z,97602.50
2023-02-27T02:59:43.851Z,97603.06
2023-02-27T03:02:10.585Z,97609.88
2023-02-27T03:04:37.266Z,97612.31
2023-02-27T03:07:03.953Z,97614.91
2023-02-27T03:09:30.600Z,97620.78
2023-02-27T03:11:57.258Z,97630.06
2023-02-27T03:14:23.895Z,97625.66
2023-02-27T03:16:50.532Z,97630.09
2023-02-27T03:19:17.129Z,97628.03
2023-02-27T03:21:43.737Z,97630.38
2023-02-27T03:24:10.399Z,97633.44
2023-02-27T03:26:37.078Z,97634.50
2023-02-27T03:29:03.736Z,97632.69
2023-02-27T03:31:30.704Z,97637.31
2023-02-27T03:33:57.518Z,97642.00
2023-02-27T03:36:24.148Z,97642.56
2023-02-27T03:38:50.854Z,97639.31
2023-02-27T03:41:17.607Z,97643.97
2023-02-27T03:43:44.250Z,97644.09
2023-02-27T03:46:10.941Z,97643.84
2023-02-27T03:48:37.608Z,97641.94
2023-02-27T03:51:04.248Z,97642.84
2023-02-27T03:53:30.954Z,97645.13
2023-02-27T03:55:57.548Z,97655.06
2023-02-27T03:58:24.257Z,97651.31
2023-02-27T04:00:50.876Z,97653.22
2023-02-27T04:03:17.475Z,97651.31
2023-02-27T04:05:44.183Z,97652.56
2023-02-27T04:08:10.812Z,97653.94
2023-02-27T04:10:37.449Z,97655.72
2023-02-27T04:13:04.128Z,97659.84
2023-02-27T04:15:30.784Z,97665.56
2023-02-27T04:17:57.458Z,97664.47
2023-02-27T04:20:24.109Z,97668.16
2023-02-27T04:22:50.711Z,97671.56
2023-02-27T04:25:17.384Z,97673.91
2023-02-27T04:27:44.010Z,97673.19
2023-02-27T04:30:10.659Z,97677.31
2023-02-27T04:32:37.510Z,97676.94
2023-02-27T04:35:04.275Z,97680.72
2023-02-27T04:37:30.940Z,97685.72
2023-02-27T04:39:57.563Z,97681.84
2023-02-27T04:42:24.256Z,97680.44
2023-02-27T04:44:50.947Z,97689.22
2023-02-27T04:47:17.653Z,97683.75
2023-02-27T04:49:44.312Z,97686.75
2023-02-27T04:52:11.011Z,97684.38
2023-02-27T04:54:37.673Z,97680.78
2023-02-27T04:57:04.365Z,97691.16
2023-02-27T04:59:31.056Z,97686.25
2023-02-27T05:01:57.885Z,97693.78
2023-02-27T05:04:24.600Z,97690.75
2023-02-27T05:06:51.238Z,97692.81
2023-02-27T05:09:17.832Z,97696.56
2023-02-27T05:11:44.477Z,97700.34
2023-02-27T05:14:11.101Z,97697.47
2023-02-27T05:16:37.768Z,97701.47
2023-02-27T05:19:04.422Z,97694.16
2023-02-27T05:21:31.131Z,97704.16
2023-02-27T05:23:57.836Z,97711.31
2023-02-27T05:26:24.497Z,97708.97
2023-02-27T05:28:51.146Z,97715.00
2023-02-27T05:31:17.825Z,97720.25
2023-02-27T05:33:44.466Z,97715.53
2023-02-27T05:36:11.162Z,97722.44
2023-02-27T05:38:37.829Z,97724.56
2023-02-27T05:41:04.503Z,97724.88
2023-02-27T05:43:31.188Z,97729.81
2023-02-27T05:45:57.887Z,97728.00
2023-02-27T05:48:24.535Z,97731.25
2023-02-27T05:50:51.171Z,97730.44
2023-02-27T05:53:17.886Z,97731.69
2023-02-27T05:55:44.493Z,97738.03
2023-02-27T05:58:11.231Z,97738.84
2023-02-27T06:00:37.843Z,97743.06
2023-02-27T06:03:04.590Z,97747.63
2023-02-27T06:05:31.294Z,97758.03
2023-02-27T06:07:57.927Z,97754.09
2023-02-27T06:10:24.595Z,97754.53
2023-02-27T06:12:51.203Z,97768.88
2023-02-27T06:15:17.927Z,97761.91
2023-02-27T06:17:44.541Z,97767.94
2023-02-27T06:20:12.447Z,97772.44
2023-02-27T06:22:40.078Z,97773.56
2023-02-27T06:25:06.697Z,97779.72
2023-02-27T06:27:33.321Z,97785.19
2023-02-27T06:30:00.010Z,97786.16
2023-02-27T06:32:26.669Z,97787.66
2023-02-27T06:34:53.343Z,97786.34
2023-02-27T06:37:20.038Z,97792.38
2023-02-27T06:39:46.690Z,97797.16
2023-02-27T06:42:13.349Z,97805.41
2023-02-27T06:44:39.946Z,97798.88
2023-02-27T06:47:06.696Z,97805.59
2023-02-27T06:49:33.341Z,97806.56
2023-02-27T06:52:12.204Z,97806.31
2023-02-27T06:54:38.800Z,97814.28
2023-02-27T06:57:05.482Z,97809.75
2023-02-27T06:59:32.219Z,97812.88
2023-02-27T07:01:58.872Z,97806.19
2023-02-27T07:04:25.602Z,97811.53
2023-02-27T07:07:34.500Z,97811.84
2023-02-27T07:09:38.914Z,97813.47
2023-02-27T07:12:05.552Z,97812.81
2023-02-27T07:14:32.290Z,97813.09
2023-02-27T07:16:58.952Z,97812.66
2023-02-27T07:19:25.587Z,97811.72
2023-02-27T07:21:52.278Z,97810.63
2023-02-27T07:24:18.945Z,97808.84
2023-02-27T07:26:45.637Z,97807.47
2023-02-27T07:29:12.322Z,97811.03
2023-02-27T07:31:39.080Z,97812.56
2023-02-27T07:34:05.827Z,97813.53
2023-02-27T07:36:32.577Z,97807.63
2023-02-27T07:38:59.237Z,97814.78
2023-02-27T07:41:30.815Z,97811.47
2023-02-27T07:43:57.826Z,97804.47
2023-02-27T07:46:24.495Z,97810.75
2023-02-27T07:48:51.324Z,97805.19
2023-02-27T07:51:18.010Z,97813.94
2023-02-27T07:53:44.740Z,97808.31
2023-02-27T07:56:11.375Z,97804.78
2023-02-27T07:58:38.262Z,97809.28
2023-02-27T08:01:04.972Z,97813.25
2023-02-27T08:03:31.617Z,97811.34
2023-02-27T08:05:58.609Z,97808.88
2023-02-27T08:08:26.785Z,97807.47
2023-02-27T08:10:53.443Z,97803.63
2023-02-27T08:13:25.175Z,97799.72
2023-02-27T08:16:02.539Z,97812.00
2023-02-27T08:18:29.790Z,97806.94
2023-02-27T08:20:56.515Z,97810.06
2023-02-27T08:23:23.112Z,97816.56
2023-02-27T08:25:49.728Z,97806.19
2023-02-27T08:28:16.377Z,97805.56
2023-02-27T08:30:43.045Z,97814.06
2023-02-27T08:33:09.718Z,97804.09
2023-02-27T08:35:36.393Z,97814.97
2023-02-27T08:38:03.134Z,97815.03
2023-02-27T08:40:29.827Z,97823.13
2023-02-27T08:42:56.507Z,97811.66
2023-02-27T08:45:23.126Z,97822.44
2023-02-27T08:47:49.798Z,97830.16
2023-02-27T08:50:16.401Z,97832.84
2023-02-27T08:52:43.043Z,97829.88
2023-02-27T08:55:09.699Z,97826.41
2023-02-27T08:57:38.214Z,97820.25
2023-02-27T09:00:04.865Z,97827.16
2023-02-27T09:02:31.640Z,97829.28
2023-02-27T09:04:58.313Z,97829.41
2023-02-27T09:07:24.978Z,97830.38
2023-02-27T09:09:51.614Z,97823.44
2023-02-27T09:12:18.313Z,97834.75
2023-02-27T09:14:44.977Z,97840.66
2023-02-27T09:17:11.620Z,97835.44
2023-02-27T09:19:38.282Z,97840.38
2023-02-27T09:22:04.879Z,97845.06
2023-02-27T09:24:31.517Z,97840.75
2023-02-27T09:26:58.194Z,97843.34
2023-02-27T09:29:24.857Z,97844.81
2023-02-27T09:31:51.566Z,97839.34
2023-02-27T09:34:18.262Z,97837.97
2023-02-27T09:36:44.945Z,97843.13
2023-02-27T09:39:11.610Z,97838.31
2023-02-27T09:41:38.219Z,97837.69
2023-02-27T09:44:04.911Z,97833.31
2023-02-27T09:46:31.558Z,97839.47
2023-02-27T09:48:58.188Z,97832.75
2023-02-27T09:51:25.386Z,97837.28
2023-02-27T09:53:52.197Z,97831.41
2023-02-27T09:56:21.143Z,97823.09
2023-02-27T09:58:47.772Z,97833.13
2023-02-27T10:01:14.405Z,97830.31
2023-02-27T10:03:41.115Z,97832.94
2023-02-27T10:06:07.806Z,97824.47
2023-02-27T10:08:34.499Z,97828.22
2023-02-27T10:11:01.135Z,97826.97
2023-02-27T10:13:27.789Z,97827.31
2023-02-27T10:15:54.540Z,97828.50
2023-02-27T10:18:28.270Z,97825.59
2023-02-27T10:20:56.419Z,97839.72
2023-02-27T10:23:23.123Z,97831.69
2023-02-27T10:25:49.756Z,97839.94
2023-02-27T10:28:16.370Z,97831.44
2023-02-27T10:30:43.143Z,97830.25
2023-02-27T10:33:09.846Z,97835.78
2023-02-27T10:35:36.529Z,97840.72
2023-02-27T10:38:03.275Z,97839.84
2023-02-27T10:40:29.921Z,97839.09
2023-02-27T10:42:56.625Z,97840.06
2023-02-27T10:45:23.309Z,97842.44
2023-02-27T10:47:49.964Z,97845.81
2023-02-27T10:50:16.620Z,97840.31
2023-02-27T10:52:43.272Z,97840.69
2023-02-27T10:55:09.924Z,97833.47
2023-02-27T10:57:36.585Z,97841.63
2023-02-27T11:00:03.246Z,97837.91
2023-02-27T11:02:29.928Z,97831.81
2023-02-27T11:04:56.635Z,97828.66
2023-02-27T11:07:23.324Z,97818.38
2023-02-27T11:09:49.948Z,97817.78
2023-02-27T11:12:16.591Z,97818.59
2023-02-27T11:14:43.442Z,97819.25
2023-02-27T11:17:10.097Z,97823.94
2023-02-27T11:19:36.753Z,97821.75
2023-02-27T11:22:03.441Z,97815.97
2023-02-27T11:24:30.095Z,97814.00
2023-02-27T11:26:56.738Z,97809.25
2023-02-27T11:29:23.357Z,97812.31
2023-02-27T11:31:50.082Z,97814.44
2023-02-27T11:34:16.749Z,97814.41
2023-02-27T11:36:43.393Z,97808.22
2023-02-27T11:39:10.638Z,97809.63
2023-02-27T11:41:37.272Z,97807.22
2023-02-27T11:44:03.939Z,97797.94
2023-02-27T11:46:47.090Z,97805.53
2023-02-27T11:49:14.862Z,97785.34
2023-02-27T11:51:41.525Z,97797.91
2023-02-27T11:54:08.201Z,97792.47
2023-02-27T11:56:36.208Z,97787.31
2023-02-27T11:59:03.018Z,97790.91
2023-02-27T12:01:29.769Z,97787.97
2023-02-27T12:03:56.563Z,97784.31
2023-02-27T12:06:23.251Z,97777.13
2023-02-27T12:08:49.959Z,97780.19
2023-02-27T12:11:16.624Z,97775.75
2023-02-27T12:13:43.274Z,97778.31
2023-02-27T12:16:10.081Z,97782.66
2023-02-27T12:18:36.835Z,97781.50
2023-02-27T12:21:03.583Z,97789.53
2023-02-27T12:23:30.234Z,97789.28
2023-02-27T12:25:57.029Z,97796.94
2023-02-27T12:28:24.320Z,97798.81
2023-02-27T12:30:51.007Z,97802.84
2023-02-27T12:33:17.974Z,97807.91
2023-02-27T12:35:44.684Z,97801.53
2023-02-27T12:38:11.400Z,97802.53
2023-02-27T12:40:38.027Z,97798.47
2023-02-27T12:43:04.689Z,97804.09
2023-02-27T12:45:31.582Z,97802.47
2023-02-27T12:47:58.291Z,97804.03
2023-02-27T12:50:24.989Z,97806.09
2023-02-27T12:52:51.669Z,97814.03
2023-02-27T12:55:18.340Z,97808.94
2023-02-27T12:57:45.005Z,97812.38
2023-02-27T13:00:11.713Z,97819.59
2023-02-27T13:02:38.356Z,97821.44
2023-02-27T13:05:04.987Z,97814.81
2023-02-27T13:07:31.699Z,97816.34
2023-02-27T13:09:58.403Z,97826.03
2023-02-27T13:12:25.056Z,97820.34
2023-02-27T13:14:51.727Z,97819.00
2023-02-27T13:17:18.424Z,97820.31
2023-02-27T13:19:45.156Z,97820.22
2023-02-27T13:22:11.772Z,97829.00
2023-02-27T13:24:38.454Z,97825.72
2023-02-27T13:27:05.178Z,97826.84
2023-02-27T13:29:33.444Z,97819.47
2023-02-27T13:32:01.274Z,97826.34
2023-02-27T13:34:27.967Z,97814.97
2023-02-27T13:36:54.740Z,97809.94
2023-02-27T13:39:21.407Z,97814.63
2023-02-27T13:41:48.060Z,97811.81
2023-02-27T13:44:14.699Z,97812.41
2023-02-27T13:46:41.407Z,97810.13
2023-02-27T13:49:09.226Z,97810.78
2023-02-27T13:51:37.348Z,97810.16
2023-02-27T13:54:04.009Z,97817.44
2023-02-27T13:56:30.748Z,97806.44
2023-02-27T13:58:58.025Z,97819.19
2023-02-27T14:01:24.784Z,97811.28
2023-02-27T14:03:51.552Z,97817.22
2023-02-27T14:06:18.226Z,97808.44
2023-02-27T14:08:44.899Z,97805.88
2023-02-27T14:11:11.683Z,97804.97
2023-02-27T14:13:38.362Z,97805.97
2023-02-27T14:16:05.056Z,97806.34
2023-02-27T14:18:34.274Z,97820.69
2023-02-27T14:21:01.142Z,97813.06
2023-02-27T14:23:27.804Z,97808.75
2023-02-27T14:25:54.487Z,97813.09
2023-02-27T14:28:21.112Z,97824.50
2023-02-27T14:30:47.778Z,97813.31
2023-02-27T14:33:14.538Z,97814.38
2023-02-27T14:35:41.211Z,97822.25
2023-02-27T14:38:07.901Z,97816.47
2023-02-27T14:40:34.508Z,97821.72
2023-02-27T14:43:01.644Z,97817.75
2023-02-27T14:45:28.300Z,97825.16
2023-02-27T14:47:54.882Z,97825.53
2023-02-27T14:50:21.516Z,97832.22
2023-02-27T14:52:48.167Z,97832.19
2023-02-27T14:55:15.110Z,97831.72
2023-02-27T14:57:41.743Z,97834.81
2023-02-27T15:00:08.398Z,97839.25
2023-02-27T15:02:35.119Z,97842.78
2023-02-27T15:05:01.797Z,97850.47
2023-02-27T15:07:28.476Z,97842.97
2023-02-27T15:09:55.170Z,97848.97
2023-02-27T15:12:21.878Z,97844.75
2023-02-27T15:14:48.883Z,97855.88
2023-02-27T15:17:15.527Z,97856.69
2023-02-27T15:19:42.165Z,97864.13
2023-02-27T15:22:08.782Z,97863.00
2023-02-27T15:24:49.337Z,97863.56
2023-02-27T15:27:16.769Z,97868.47
2023-02-27T15:29:43.517Z,97870.38
2023-02-27T15:32:10.273Z,97865.19
2023-02-27T15:34:36.916Z,97872.47
2023-02-27T15:37:03.549Z,97874.13
2023-02-27T15:39:30.195Z,97883.06
2023-02-27T15:41:56.880Z,97886.50
2023-02-27T15:44:23.526Z,97891.47
2023-02-27T15:46:50.204Z,97896.47
2023-02-27T15:49:16.869Z,97896.63
2023-02-27T15:51:43.544Z,97900.28
2023-02-27T15:54:10.189Z,97897.25
2023-02-27T15:56:36.799Z,97902.25
2023-02-27T15:59:03.481Z,97901.63
2023-02-27T16:01:30.681Z,97906.44
2023-02-27T16:03:57.505Z,97923.63
2023-02-27T16:06:24.219Z,97922.22
2023-02-27T16:08:50.972Z,97924.38
2023-02-27T16:11:17.666Z,97937.59
2023-02-27T16:13:44.302Z,97937.03
2023-02-27T16:16:11.005Z,97944.56
2023-02-27T16:18:37.611Z,97943.34
2023-02-27T16:21:04.294Z,97947.19
2023-02-27T16:23:30.942Z,97952.78
2023-02-27T16:25:57.598Z,97958.00
2023-02-27T16:28:24.288Z,97962.94
2023-02-27T16:30:50.930Z,97968.28
2023-02-27T16:33:17.610Z,97971.44
2023-02-27T16:35:44.329Z,97968.44
2023-02-27T16:38:11.023Z,97979.94
2023-02-27T16:40:37.807Z,97980.50
2023-02-27T16:43:04.576Z,97992.03
2023-02-27T16:45:31.252Z,97992.81
2023-02-27T16:47:57.923Z,97998.13
2023-02-27T16:50:25.572Z,98002.16
2023-02-27T16:52:52.170Z,98010.88
2023-02-27T16:55:18.847Z,98006.44
2023-02-27T16:57:45.453Z,98010.13
2023-02-27T17:00:12.053Z,98006.56
2023-02-27T17:02:38.742Z,98023.19
2023-02-27T17:05:05.411Z,98023.19
2023-02-27T17:07:32.118Z,98030.25
2023-02-27T17:09:58.736Z,98033.56
2023-02-27T17:12:25.448Z,98046.53
2023-02-27T17:14:52.061Z,98048.91
2023-02-27T17:17:18.753Z,98053.69
2023-02-27T17:19:46.477Z,98055.97
2023-02-27T17:22:13.175Z,98055.50
2023-02-27T17:24:39.809Z,98061.22
2023-02-27T17:27:06.460Z,98068.50
2023-02-27T17:29:33.056Z,98063.41
2023-02-27T17:31:59.750Z,98070.63
2023-02-27T17:34:26.393Z,98078.56
2023-02-27T17:36:53.043Z,98081.59
2023-02-27T17:39:19.677Z,98084.25
2023-02-27T17:41:46.368Z,98093.13
2023-02-27T17:44:13.042Z,98102.50
2023-02-27T17:46:39.684Z,98110.38
2023-02-27T17:49:08.262Z,98108.72
2023-02-27T17:51:34.892Z,98114.22
2023-02-27T17:54:01.535Z,98119.59
2023-02-27T17:56:28.360Z,98118.41
2023-02-27T17:58:55.223Z,98113.31
2023-02-27T18:01:21.912Z,98121.78
2023-02-27T18:03:48.608Z,98120.22
2023-02-27T18:06:15.239Z,98121.34
2023-02-27T18:08:41.829Z,98121.63
2023-02-27T18:11:08.458Z,98121.94
2023-02-27T18:13:35.116Z,98123.47
2023-02-27T18:16:01.832Z,98120.97
2023-02-27T18:18:28.671Z,98116.03
2023-02-27T18:20:55.293Z,98120.00
2023-02-27T18:23:21.939Z,98115.41
2023-02-27T18:25:48.589Z,98123.81
2023-02-27T18:28:15.225Z,98120.25
2023-02-27T18:30:41.858Z,98128.34
2023-02-27T18:33:08.531Z,98123.75
2023-02-27T18:35:35.211Z,98134.63
2023-02-27T18:38:01.895Z,98135.75
2023-02-27T18:40:28.712Z,98144.22
2023-02-27T18:42:55.346Z,98142.81
2023-02-27T18:45:22.198Z,98142.31
2023-02-27T18:47:48.804Z,98143.06
2023-02-27T18:50:15.435Z,98140.66
2023-02-27T18:52:42.037Z,98139.75
2023-02-27T18:55:08.813Z,98138.84
2023-02-27T18:57:35.526Z,98148.09
2023-02-27T19:00:02.230Z,98141.94
2023-02-27T19:02:28.875Z,98150.81
2023-02-27T19:04:55.556Z,98147.25
2023-02-27T19:07:22.284Z,98157.41
2023-02-27T19:09:48.896Z,98154.25
2023-02-27T19:12:18.564Z,98161.22
2023-02-27T19:14:45.234Z,98157.34
2023-02-27T19:17:11.908Z,98162.03
2023-02-27T19:19:38.517Z,98161.50
2023-02-27T19:22:05.193Z,98168.88
2023-02-27T19:24:31.925Z,98166.81
2023-02-27T19:26:58.583Z,98172.69
2023-02-27T19:29:25.318Z,98177.13
2023-02-27T19:31:52.077Z,98179.38
2023-02-27T19:34:18.896Z,98178.19
2023-02-27T19:36:45.571Z,98178.38
2023-02-27T19:39:12.240Z,98175.47
2023-02-27T19:41:38.974Z,98184.78
2023-02-27T19:44:05.638Z,98180.72
2023-02-27T19:46:32.693Z,98183.66
2023-02-27T19:48:59.512Z,98186.94
2023-02-27T19:51:26.332Z,98184.16
2023-02-27T19:53:52.951Z,98185.13
2023-02-27T19:56:19.659Z,98183.75
2023-02-27T19:58:46.334Z,98181.69
2023-02-27T20:01:13.032Z,98181.16
2023-02-27T20:03:41.359Z,98185.78
2023-02-27T20:06:09.838Z,98180.31
2023-02-27T20:08:36.542Z,98187.53
2023-02-27T20:11:03.174Z,98192.41
2023-02-27T20:13:29.822Z,98193.13
2023-02-27T20:15:56.468Z,98194.19
2023-02-27T20:18:23.154Z,98189.25
2023-02-27T20:20:49.796Z,98195.09
2023-02-27T20:23:16.460Z,98197.00
2023-02-27T20:25:43.142Z,98191.25
2023-02-27T20:28:09.781Z,98198.69
2023-02-27T20:30:36.488Z,98206.25
2023-02-27T20:33:03.135Z,98200.88
2023-02-27T20:35:29.796Z,98202.25
2023-02-27T20:37:56.562Z,98202.28
2023-02-27T20:40:23.167Z,98207.34
2023-02-27T20:42:50.247Z,98210.00
2023-02-27T20:45:16.894Z,98207.81
2023-02-27T20:47:43.537Z,98215.09
2023-02-27T20:50:10.188Z,98220.03
2023-02-27T20:52:36.837Z,98212.75
2023-02-27T20:55:03.471Z,98210.56
2023-02-27T20:57:30.302Z,98214.28
2023-02-27T20:59:56.968Z,98219.91
2023-02-27T21:02:23.618Z,98217.44
2023-02-27T21:04:50.423Z,98219.06
2023-02-27T21:07:17.161Z,98221.38
2023-02-27T21:09:43.813Z,98224.28
2023-02-27T21:12:10.495Z,98224.00
2023-02-27T21:14:37.147Z,98226.47
2023-02-27T21:17:03.803Z,98218.53
2023-02-27T21:19:30.502Z,98228.81
2023-02-27T21:21:57.117Z,98222.88
2023-02-27T21:24:23.750Z,98222.22
2023-02-27T21:26:50.437Z,98220.97
2023-02-27T21:29:17.069Z,98223.75
2023-02-27T21:31:43.951Z,98222.09
2023-02-27T21:34:10.566Z,98229.66
2023-02-27T21:36:37.234Z,98224.44
2023-02-27T21:39:03.829Z,98222.66
2023-02-27T21:41:30.765Z,98222.06
2023-02-27T21:43:57.603Z,98224.94
2023-02-27T21:46:24.240Z,98219.88
2023-02-27T21:48:51.025Z,98227.03
2023-02-27T21:51:29.610Z,98222.72
2023-02-27T21:54:03.716Z,98227.16
2023-02-27T21:56:30.521Z,98226.50
2023-02-27T21:58:57.308Z,98231.16
2023-02-27T22:01:23.991Z,98222.31
2023-02-27T22:03:50.740Z,98220.00
2023-02-27T22:06:17.357Z,98222.19
2023-02-27T22:08:43.986Z,98228.19
2023-02-27T22:11:10.612Z,98228.03
2023-02-27T22:13:37.464Z,98219.97
2023-02-27T22:16:04.231Z,98226.31
2023-02-27T22:18:30.894Z,98219.28
2023-02-27T22:20:58.868Z,98224.94
2023-02-27T22:23:25.529Z,98233.59
2023-02-27T22:25:52.223Z,98230.59
2023-02-27T22:28:18.831Z,98227.56
2023-02-27T22:30:45.450Z,98225.66
2023-02-27T22:33:12.083Z,98231.41
2023-02-27T22:35:38.754Z,98226.03
2023-02-27T22:38:05.506Z,98236.34
2023-02-27T22:40:32.220Z,98221.69
2023-02-27T22:42:58.870Z,98223.03
2023-02-27T22:45:25.496Z,98223.84
2023-02-27T22:47:52.137Z,98221.25
2023-02-27T22:50:18.825Z,98226.31
2023-02-27T22:52:45.510Z,98230.44
2023-02-27T22:55:12.157Z,98227.94
2023-02-27T22:57:38.940Z,98231.41
2023-02-27T23:00:05.581Z,98234.44
2023-02-27T23:02:32.257Z,98236.34
2023-02-27T23:04:58.883Z,98234.28
2023-02-27T23:07:26.861Z,98236.88
2023-02-27T23:09:53.464Z,98238.53
2023-02-27T23:12:20.103Z,98244.72
2023-02-27T23:14:46.775Z,98249.38
2023-02-27T23:17:13.417Z,98249.06
2023-02-27T23:19:40.093Z,98247.97
2023-02-27T23:22:06.734Z,98245.88
2023-02-27T23:24:33.377Z,98251.31
2023-02-27T23:27:00.043Z,98252.53
2023-02-27T23:29:26.756Z,98246.38
2023-02-27T23:31:53.610Z,98250.09
2023-02-27T23:34:20.330Z,98259.47
2023-02-27T23:36:47.063Z,98252.72
2023-02-27T23:39:13.764Z,98253.16
2023-02-27T23:41:40.420Z,98256.47
2023-02-27T23:44:07.076Z,98252.16
2023-02-27T23:46:33.710Z,98254.63
2023-02-27T23:49:00.346Z,98253.16
2023-02-27T23:51:29.687Z,98249.53
2023-02-27T23:53:56.863Z,98253.94
2023-02-27T23:56:23.522Z,98250.78
2023-02-27T23:58:50.229Z,98255.22
